Santa Isabel, Brazil
Current Conditions -  °F | °C
As of 7:00 AM on Sunday 21 Dec 2014 (Local Time) from SBAN Reporting Station
Broken Clouds Broken Clouds  
Wind Chill: 66°   Ceiling: 400
Heat Index: 66°   Visibility: 6mi
Dew Point: 64°   Wind: 6mph
Humidity: 94%   Direction: 350°N
Pressure: 30.06"   Gusts: 17mph
Location:  15.3°S, 49.43°W
Report Text: SBAN 210900Z 35005G15KT 9999 BKN004 BKN100 19/18 Q1018
Loading
Personal Weather Stations






























Interactive Weather Map New forecast layout! Learn more

10-Day Weather Forecast

Advertisements
Track Severe Weather on mobile